createdAt,value
2023-11-09T00:00:10.720Z,7.32
2023-11-09T00:03:17.561Z,7.28
2023-11-09T00:06:05.232Z,7.24
2023-11-09T00:08:52.240Z,7.21
2023-11-09T00:11:39.431Z,7.17
2023-11-09T00:14:26.485Z,7.14
2023-11-09T00:17:13.435Z,7.14
2023-11-09T00:20:00.504Z,7.17
2023-11-09T00:22:49.120Z,7.22
2023-11-09T00:25:36.762Z,7.24
2023-11-09T00:28:23.625Z,7.24
2023-11-09T00:31:11.713Z,7.16
2023-11-09T00:33:58.402Z,7.13
2023-11-09T00:36:45.516Z,7.20
2023-11-09T00:39:32.896Z,7.27
2023-11-09T00:42:20.413Z,7.26
2023-11-09T00:45:08.619Z,7.25
2023-11-09T00:47:55.261Z,7.24
2023-11-09T00:50:42.409Z,7.21
2023-11-09T00:53:29.143Z,7.14
2023-11-09T00:56:16.773Z,7.17
2023-11-09T00:59:05.017Z,7.19
2023-11-09T01:01:52.296Z,7.22
2023-11-09T01:04:39.204Z,7.31
2023-11-09T01:07:27.547Z,7.36
2023-11-09T01:10:14.800Z,7.38
2023-11-09T01:13:04.242Z,7.39
2023-11-09T01:15:51.283Z,7.38
2023-11-09T01:18:40.418Z,7.36
2023-11-09T01:21:27.519Z,7.27
2023-11-09T01:24:14.178Z,7.15
2023-11-09T01:27:01.387Z,7.13
2023-11-09T01:29:48.697Z,7.14
2023-11-09T01:32:35.490Z,7.20
2023-11-09T01:35:22.554Z,7.25
2023-11-09T01:38:09.491Z,7.28
2023-11-09T01:40:56.651Z,7.16
2023-11-09T01:43:43.501Z,7.14
2023-11-09T01:46:31.103Z,7.14
2023-11-09T01:49:18.357Z,7.13
2023-11-09T01:52:06.268Z,7.13
2023-11-09T01:54:53.371Z,7.14
2023-11-09T01:57:42.085Z,7.10
2023-11-09T02:00:28.939Z,7.08
2023-11-09T02:03:16.344Z,7.09
2023-11-09T02:06:07.380Z,7.02
2023-11-09T02:08:54.617Z,7.04
2023-11-09T02:11:41.601Z,7.06
2023-11-09T02:14:28.113Z,7.06
2023-11-09T02:17:15.372Z,6.97
2023-11-09T02:20:03.576Z,6.96
2023-11-09T02:22:54.057Z,6.95
2023-11-09T02:25:42.291Z,6.94
2023-11-09T02:28:29.173Z,6.96
2023-11-09T02:31:16.434Z,6.95
2023-11-09T02:34:05.533Z,6.99
2023-11-09T02:36:54.724Z,7.01
2023-11-09T02:39:41.996Z,7.02
2023-11-09T02:42:30.280Z,7.00
2023-11-09T02:45:17.079Z,7.00
2023-11-09T02:48:05.470Z,7.04
2023-11-09T02:50:53.142Z,7.06
2023-11-09T02:53:43.057Z,7.03
2023-11-09T02:56:30.025Z,7.00
2023-11-09T02:59:16.909Z,6.99
2023-11-09T03:02:03.895Z,6.92
2023-11-09T03:04:51.380Z,6.96
2023-11-09T03:07:38.066Z,7.00
2023-11-09T03:10:25.368Z,7.00
2023-11-09T03:13:12.581Z,7.01
2023-11-09T03:15:59.945Z,7.04
2023-11-09T03:18:47.207Z,7.02
2023-11-09T03:21:36.037Z,6.96
2023-11-09T03:24:23.120Z,6.94
2023-11-09T03:27:15.814Z,6.91
2023-11-09T03:30:02.788Z,6.83
2023-11-09T03:32:49.819Z,6.81
2023-11-09T03:35:38.088Z,6.86
2023-11-09T03:38:25.053Z,6.93
2023-11-09T03:41:12.435Z,6.96
2023-11-09T03:43:59.260Z,7.02
2023-11-09T03:46:46.406Z,7.04
2023-11-09T03:49:33.743Z,6.97
2023-11-09T03:52:22.994Z,6.97
2023-11-09T03:55:13.128Z,6.89
2023-11-09T03:58:00.166Z,6.77
2023-11-09T04:00:47.189Z,6.71
2023-11-09T04:03:34.471Z,6.70
2023-11-09T04:06:21.694Z,6.73
2023-11-09T04:09:10.813Z,6.74
2023-11-09T04:11:57.880Z,6.73
2023-11-09T04:14:45.000Z,6.67
2023-11-09T04:17:33.014Z,6.61
2023-11-09T04:20:20.380Z,6.65
2023-11-09T04:23:07.147Z,6.72
2023-11-09T04:25:54.041Z,6.71
2023-11-09T04:28:40.929Z,6.64
2023-11-09T04:31:32.558Z,6.59
2023-11-09T04:34:20.762Z,6.63
2023-11-09T04:37:13.102Z,6.65
2023-11-09T04:40:00.060Z,6.68
2023-11-09T04:42:48.548Z,6.68
2023-11-09T04:45:36.489Z,6.65
2023-11-09T04:48:33.460Z,6.63
2023-11-09T04:51:38.204Z,6.67
2023-11-09T04:54:25.963Z,6.70
2023-11-09T04:57:42.834Z,6.73
2023-11-09T05:00:51.166Z,6.73
2023-11-09T05:03:58.919Z,6.71
2023-11-09T05:06:50.568Z,6.68
2023-11-09T05:09:39.994Z,6.59
2023-11-09T05:12:26.800Z,6.51
2023-11-09T05:15:13.879Z,6.45
2023-11-09T05:18:01.165Z,6.40
2023-11-09T05:20:49.840Z,6.39
2023-11-09T05:23:37.496Z,6.43
2023-11-09T05:26:27.082Z,6.46
2023-11-09T05:29:14.384Z,6.47
2023-11-09T05:32:07.631Z,6.48
2023-11-09T05:34:54.320Z,6.42
2023-11-09T05:37:41.353Z,6.36
2023-11-09T05:40:28.950Z,6.34
2023-11-09T05:43:15.809Z,6.32
2023-11-09T05:46:03.106Z,6.28
2023-11-09T05:48:50.329Z,6.25
2023-11-09T05:51:49.361Z,6.26
2023-11-09T05:54:36.316Z,6.26
2023-11-09T05:57:23.592Z,6.26
2023-11-09T06:00:12.221Z,6.31
2023-11-09T06:02:59.594Z,6.35
2023-11-09T06:05:46.753Z,6.39
2023-11-09T06:08:35.859Z,6.48
2023-11-09T06:11:22.848Z,6.46
2023-11-09T06:14:11.040Z,6.48
2023-11-09T06:16:59.844Z,6.47
2023-11-09T06:19:53.940Z,6.49
2023-11-09T06:22:41.896Z,6.54
2023-11-09T06:25:29.066Z,6.57
2023-11-09T06:28:16.876Z,6.62
2023-11-09T06:31:08.189Z,6.65
2023-11-09T06:33:55.788Z,6.63
2023-11-09T06:36:46.906Z,6.60
2023-11-09T06:39:33.786Z,6.60
2023-11-09T06:42:20.961Z,6.66
2023-11-09T06:45:10.538Z,6.76
2023-11-09T06:47:57.560Z,6.88
2023-11-09T06:50:44.736Z,6.98
2023-11-09T06:53:31.915Z,7.06
2023-11-09T06:56:23.619Z,7.05
2023-11-09T06:59:10.704Z,7.08
2023-11-09T07:02:00.104Z,7.11
2023-11-09T07:04:47.265Z,7.13
2023-11-09T07:07:35.920Z,7.17
2023-11-09T07:10:23.017Z,7.21
2023-11-09T07:13:12.004Z,7.26
2023-11-09T07:16:00.945Z,7.29
2023-11-09T07:18:47.978Z,7.32
2023-11-09T07:21:34.807Z,7.34
2023-11-09T07:24:21.540Z,7.41
2023-11-09T07:27:11.040Z,7.49
2023-11-09T07:29:57.884Z,7.57
2023-11-09T07:32:45.615Z,7.71
2023-11-09T07:35:32.365Z,7.85
2023-11-09T07:38:20.341Z,7.95
2023-11-09T07:41:07.262Z,8.02
2023-11-09T07:43:54.630Z,8.11
2023-11-09T07:46:42.103Z,8.21
2023-11-09T07:49:31.909Z,8.29
2023-11-09T07:52:18.998Z,8.37
2023-11-09T07:55:07.170Z,8.47
2023-11-09T07:57:54.676Z,8.58
2023-11-09T08:00:42.158Z,8.67
2023-11-09T08:03:29.996Z,8.75
2023-11-09T08:06:17.671Z,8.84
2023-11-09T08:09:06.520Z,8.90
2023-11-09T08:11:53.799Z,8.95
2023-11-09T08:14:41.026Z,9.01
2023-11-09T08:17:31.234Z,9.10
2023-11-09T08:20:20.753Z,9.17
2023-11-09T08:23:10.332Z,9.22
2023-11-09T08:25:57.728Z,9.27
2023-11-09T08:28:44.981Z,9.33
2023-11-09T08:31:35.474Z,9.41
2023-11-09T08:34:22.691Z,9.49
2023-11-09T08:37:11.896Z,9.56
2023-11-09T08:40:00.153Z,9.65
2023-11-09T08:42:51.609Z,9.74
2023-11-09T08:45:38.152Z,9.86
2023-11-09T08:48:28.840Z,9.96
2023-11-09T08:51:16.316Z,10.10
2023-11-09T08:54:03.568Z,10.18
2023-11-09T08:56:50.470Z,10.26
2023-11-09T08:59:37.311Z,10.32
2023-11-09T09:02:24.784Z,10.40
2023-11-09T09:05:16.703Z,10.51
2023-11-09T09:08:04.515Z,10.60
2023-11-09T09:10:57.510Z,10.70
2023-11-09T09:13:46.027Z,10.79
2023-11-09T09:16:33.289Z,10.90
2023-11-09T09:19:21.875Z,11.02
2023-11-09T09:22:10.446Z,11.12
2023-11-09T09:24:57.291Z,11.19
2023-11-09T09:27:47.375Z,11.24
2023-11-09T09:30:42.501Z,11.31
2023-11-09T09:33:30.196Z,11.34
2023-11-09T09:36:17.071Z,11.45
2023-11-09T09:39:05.264Z,11.54
2023-11-09T09:41:56.462Z,11.60
2023-11-09T09:44:44.592Z,11.67
2023-11-09T09:47:31.978Z,11.73
2023-11-09T09:50:20.325Z,11.83
2023-11-09T09:53:11.416Z,11.93
2023-11-09T09:55:58.717Z,11.97
2023-11-09T09:58:46.464Z,12.02
2023-11-09T10:01:35.934Z,12.05
2023-11-09T10:04:26.540Z,12.10
2023-11-09T10:07:19.018Z,12.10
2023-11-09T10:10:06.709Z,12.14
2023-11-09T10:12:58.493Z,12.19
2023-11-09T10:15:46.792Z,12.21
2023-11-09T10:18:35.552Z,12.23
2023-11-09T10:21:22.562Z,12.25
2023-11-09T10:24:15.346Z,12.24
2023-11-09T10:27:03.165Z,12.24
2023-11-09T10:29:52.643Z,12.25
2023-11-09T10:32:41.878Z,12.30
2023-11-09T10:35:32.429Z,12.38
2023-11-09T10:38:21.872Z,12.45
2023-11-09T10:41:51.490Z,12.50
2023-11-09T10:44:24.017Z,12.58
2023-11-09T10:47:11.927Z,12.61
2023-11-09T10:50:02.238Z,12.65
2023-11-09T10:52:51.346Z,12.70
2023-11-09T10:55:39.401Z,12.82
2023-11-09T10:58:27.010Z,12.88
2023-11-09T11:01:22.128Z,12.93
2023-11-09T11:04:11.338Z,12.96
2023-11-09T11:06:59.993Z,12.91
2023-11-09T11:09:52.617Z,12.88
2023-11-09T11:12:44.276Z,12.87
2023-11-09T11:16:05.326Z,12.86
2023-11-09T11:19:19.005Z,12.90
2023-11-09T11:22:20.623Z,12.92
2023-11-09T11:25:08.224Z,12.99
2023-11-09T11:28:02.630Z,13.04
2023-11-09T11:30:54.103Z,13.06
2023-11-09T11:33:41.650Z,13.08
2023-11-09T11:36:31.718Z,13.09
2023-11-09T11:39:41.088Z,13.12
2023-11-09T11:42:29.235Z,13.18
2023-11-09T11:45:17.626Z,13.19
2023-11-09T11:48:07.188Z,13.18
2023-11-09T11:50:57.026Z,13.19
2023-11-09T11:53:46.050Z,13.25
2023-11-09T11:56:34.213Z,13.29
2023-11-09T11:59:23.962Z,13.33
2023-11-09T12:02:16.243Z,13.38
2023-11-09T12:05:03.979Z,13.47
2023-11-09T12:07:51.223Z,13.54
2023-11-09T12:10:42.297Z,13.61
2023-11-09T12:13:35.688Z,13.62
2023-11-09T12:16:25.757Z,13.57
2023-11-09T12:19:13.856Z,13.50
2023-11-09T12:22:02.464Z,13.48
2023-11-09T12:24:58.080Z,13.40
2023-11-09T12:27:47.971Z,13.30
2023-11-09T12:30:35.872Z,13.23
2023-11-09T12:33:22.725Z,13.20
2023-11-09T12:36:09.933Z,13.15
2023-11-09T12:38:57.120Z,13.10
2023-11-09T12:41:44.299Z,13.07
2023-11-09T12:44:36.571Z,13.06
2023-11-09T12:47:27.397Z,13.05
2023-11-09T12:50:21.356Z,13.05
2023-11-09T12:53:08.406Z,13.01
2023-11-09T12:55:56.794Z,13.01
2023-11-09T12:58:47.886Z,13.02
2023-11-09T13:01:34.732Z,13.08
2023-11-09T13:04:23.381Z,13.13
2023-11-09T13:07:13.343Z,13.14
2023-11-09T13:10:18.938Z,13.13
2023-11-09T13:13:23.204Z,13.08
2023-11-09T13:16:16.141Z,13.04
2023-11-09T13:19:15.517Z,12.96
2023-11-09T13:22:08.510Z,12.86
2023-11-09T13:24:55.874Z,12.75
2023-11-09T13:27:43.088Z,12.65
2023-11-09T13:30:31.986Z,12.56
2023-11-09T13:33:30.215Z,12.43
2023-11-09T13:36:21.001Z,12.35
2023-11-09T13:39:08.086Z,12.27
2023-11-09T13:42:04.302Z,12.22
2023-11-09T13:44:51.470Z,12.18
2023-11-09T13:47:38.403Z,12.09
2023-11-09T13:50:30.678Z,12.03
2023-11-09T13:53:36.833Z,11.97
2023-11-09T13:56:47.405Z,11.92
2023-11-09T13:59:37.206Z,11.86
2023-11-09T14:02:31.001Z,11.80
2023-11-09T14:05:18.737Z,11.77
2023-11-09T14:08:16.629Z,11.74
2023-11-09T14:11:09.783Z,11.70
2023-11-09T14:14:05.845Z,11.64
2023-11-09T14:16:56.570Z,11.65
2023-11-09T14:19:48.810Z,11.67
2023-11-09T14:22:41.046Z,11.68
2023-11-09T14:25:27.977Z,11.67
2023-11-09T14:28:15.935Z,11.64
2023-11-09T14:31:07.458Z,11.64
2023-11-09T14:33:56.644Z,11.62
2023-11-09T14:36:46.857Z,11.61
2023-11-09T14:39:37.920Z,11.58
2023-11-09T14:42:28.029Z,11.56
2023-11-09T14:45:17.643Z,11.51
2023-11-09T14:48:05.054Z,11.49
2023-11-09T14:50:52.510Z,11.41
2023-11-09T14:53:39.713Z,11.37
2023-11-09T14:56:28.068Z,11.37
2023-11-09T14:59:18.380Z,11.32
2023-11-09T15:02:06.737Z,11.27
2023-11-09T15:04:56.454Z,11.27
2023-11-09T15:07:48.110Z,11.22
2023-11-09T15:10:35.917Z,11.17
2023-11-09T15:13:22.495Z,11.12
2023-11-09T15:16:10.711Z,11.10
2023-11-09T15:18:57.927Z,11.05
2023-11-09T15:21:47.695Z,11.02
2023-11-09T15:24:35.595Z,11.00
2023-11-09T15:27:26.081Z,10.97
2023-11-09T15:30:16.207Z,10.90
2023-11-09T15:33:03.146Z,10.86
2023-11-09T15:35:50.856Z,10.85
2023-11-09T15:38:39.974Z,10.84
2023-11-09T15:41:30.650Z,10.78
2023-11-09T15:44:18.217Z,10.69
2023-11-09T15:47:05.052Z,10.64
2023-11-09T15:50:00.399Z,10.61
2023-11-09T15:52:51.902Z,10.58
2023-11-09T15:55:38.951Z,10.54
2023-11-09T15:58:32.295Z,10.51
2023-11-09T16:01:20.804Z,10.48
2023-11-09T16:04:07.792Z,10.39
2023-11-09T16:06:54.807Z,10.33
2023-11-09T16:09:49.804Z,10.30
2023-11-09T16:12:42.758Z,10.26
2023-11-09T16:15:31.477Z,10.21
2023-11-09T16:18:18.419Z,10.14
2023-11-09T16:21:06.878Z,10.11
2023-11-09T16:23:54.066Z,10.06
2023-11-09T16:26:44.823Z,10.03
2023-11-09T16:29:31.751Z,10.00
2023-11-09T16:32:19.466Z,9.95
2023-11-09T16:35:09.839Z,9.93
2023-11-09T16:37:58.338Z,9.92
2023-11-09T16:40:47.020Z,9.90
2023-11-09T16:43:35.202Z,9.89
2023-11-09T16:46:25.016Z,9.88
2023-11-09T16:49:12.467Z,9.83
2023-11-09T16:52:02.004Z,9.79
2023-11-09T16:54:51.337Z,9.80
2023-11-09T16:57:43.923Z,9.83
2023-11-09T17:00:30.411Z,9.83
2023-11-09T17:03:17.563Z,9.83
2023-11-09T17:06:07.516Z,9.82
2023-11-09T17:08:55.544Z,9.82
2023-11-09T17:11:43.174Z,9.81
2023-11-09T17:14:30.318Z,9.80
2023-11-09T17:17:20.338Z,9.80
2023-11-09T17:20:10.959Z,9.77
2023-11-09T17:22:58.922Z,9.75
2023-11-09T17:25:45.813Z,9.72
2023-11-09T17:28:34.204Z,9.67
2023-11-09T17:31:21.199Z,9.63
2023-11-09T17:34:09.753Z,9.60
2023-11-09T17:36:58.150Z,9.57
2023-11-09T17:39:44.833Z,9.56
2023-11-09T17:42:31.702Z,9.55
2023-11-09T17:45:19.083Z,9.54
2023-11-09T17:48:07.055Z,9.54
2023-11-09T17:50:53.865Z,9.55
2023-11-09T17:53:40.866Z,9.53
2023-11-09T17:56:28.357Z,9.52
2023-11-09T17:59:18.052Z,9.50
2023-11-09T18:02:06.815Z,9.44
2023-11-09T18:04:54.089Z,9.43
2023-11-09T18:07:43.497Z,9.38
2023-11-09T18:10:30.135Z,9.39
2023-11-09T18:13:18.114Z,9.37
2023-11-09T18:16:06.947Z,9.34
2023-11-09T18:18:54.186Z,9.36
2023-11-09T18:21:41.158Z,9.38
2023-11-09T18:24:30.259Z,9.37
2023-11-09T18:27:17.043Z,9.39
2023-11-09T18:30:07.769Z,9.40
2023-11-09T18:32:57.206Z,9.38
2023-11-09T18:35:47.035Z,9.31
2023-11-09T18:38:35.316Z,9.27
2023-11-09T18:41:26.543Z,9.24
2023-11-09T18:44:15.449Z,9.26
2023-11-09T18:47:03.262Z,9.27
2023-11-09T18:52:42.609Z,9.31
2023-11-09T18:55:33.750Z,9.31
2023-11-09T18:58:21.196Z,9.31
2023-11-09T19:01:08.090Z,9.31
2023-11-09T19:06:49.253Z,9.31
2023-11-09T19:09:36.141Z,9.26
2023-11-09T19:12:22.730Z,9.19
2023-11-09T19:15:12.590Z,9.14
2023-11-09T19:17:59.370Z,9.11
2023-11-09T19:23:42.486Z,9.00
2023-11-09T19:26:29.337Z,8.97
2023-11-09T19:29:16.404Z,8.96
2023-11-09T19:32:05.900Z,8.95
2023-11-09T19:34:53.505Z,8.93
2023-11-09T19:37:40.053Z,8.90
2023-11-09T19:40:27.083Z,8.87
2023-11-09T19:43:14.687Z,8.83
2023-11-09T19:46:01.685Z,8.76
2023-11-09T19:48:48.746Z,8.72
2023-11-09T19:51:35.654Z,8.67
2023-11-09T19:54:23.325Z,8.62
2023-11-09T19:57:11.578Z,8.60
2023-11-09T19:59:59.557Z,8.59
2023-11-09T20:02:47.351Z,8.66
2023-11-09T20:05:35.277Z,8.71
2023-11-09T20:08:25.236Z,8.73
2023-11-09T20:11:12.615Z,8.73
2023-11-09T20:14:00.507Z,8.77
2023-11-09T20:16:47.794Z,8.82
2023-11-09T20:19:36.195Z,8.84
2023-11-09T20:22:24.569Z,8.84
2023-11-09T20:25:14.070Z,8.83
2023-11-09T20:28:01.065Z,8.85
2023-11-09T20:30:48.144Z,8.89
2023-11-09T20:33:35.542Z,8.89
2023-11-09T20:36:22.624Z,8.89
2023-11-09T20:39:12.759Z,8.91
2023-11-09T20:42:01.730Z,8.90
2023-11-09T20:44:48.688Z,8.89
2023-11-09T20:47:38.751Z,8.90
2023-11-09T20:50:25.705Z,8.91
2023-11-09T20:53:12.624Z,8.92
2023-11-09T20:55:59.442Z,8.94
2023-11-09T20:58:47.720Z,8.93
2023-11-09T21:01:34.665Z,8.89
2023-11-09T21:04:24.295Z,8.89
2023-11-09T21:07:11.946Z,8.89
2023-11-09T21:09:59.293Z,8.88
2023-11-09T21:12:47.284Z,8.89
2023-11-09T21:15:34.145Z,8.93
2023-11-09T21:18:24.689Z,8.96
2023-11-09T21:21:11.339Z,8.97
2023-11-09T21:23:59.464Z,8.99
2023-11-09T21:26:46.730Z,8.97
2023-11-09T21:29:33.641Z,8.96
2023-11-09T21:32:20.906Z,8.97
2023-11-09T21:35:08.446Z,8.97
2023-11-09T21:37:55.009Z,8.97
2023-11-09T21:40:42.047Z,8.99
2023-11-09T21:43:29.064Z,8.99
2023-11-09T21:46:15.886Z,8.99
2023-11-09T21:49:02.821Z,8.98
2023-11-09T21:51:53.035Z,8.97
2023-11-09T21:54:42.837Z,8.97
2023-11-09T21:57:29.879Z,9.00
2023-11-09T22:00:17.457Z,8.99
2023-11-09T22:03:07.901Z,9.00
2023-11-09T22:05:55.401Z,9.04
2023-11-09T22:08:44.290Z,9.17
2023-11-09T22:11:35.354Z,9.28
2023-11-09T22:14:22.537Z,9.39
2023-11-09T22:17:09.326Z,9.51
2023-11-09T22:19:58.868Z,9.62
2023-11-09T22:22:46.139Z,9.72
2023-11-09T22:25:33.915Z,9.80
2023-11-09T22:28:22.535Z,9.87
2023-11-09T22:31:12.724Z,9.91
2023-11-09T22:34:00.056Z,9.93
2023-11-09T22:36:46.872Z,9.97
2023-11-09T22:39:33.655Z,9.99
2023-11-09T22:42:21.362Z,10.02
2023-11-09T22:45:09.643Z,10.04
2023-11-09T22:47:56.854Z,10.09
2023-11-09T22:50:43.670Z,10.12
2023-11-09T22:53:30.576Z,10.15
2023-11-09T22:56:17.273Z,10.20
2023-11-09T22:59:04.565Z,10.24
2023-11-09T23:01:51.575Z,10.24
2023-11-09T23:04:38.619Z,10.27
2023-11-09T23:07:25.908Z,10.29
2023-11-09T23:10:15.168Z,10.30
2023-11-09T23:13:02.359Z,10.30
2023-11-09T23:15:49.518Z,10.30
2023-11-09T23:18:37.681Z,10.32
2023-11-09T23:21:25.682Z,10.32
2023-11-09T23:24:12.764Z,10.31
2023-11-09T23:26:59.558Z,10.31
2023-11-09T23:29:46.526Z,10.34
2023-11-09T23:32:33.306Z,10.32
2023-11-09T23:35:20.310Z,10.30
2023-11-09T23:38:07.370Z,10.31
2023-11-09T23:40:54.356Z,10.34
2023-11-09T23:43:41.384Z,10.38
2023-11-09T23:46:28.295Z,10.43
2023-11-09T23:49:15.397Z,10.49
2023-11-09T23:52:04.779Z,10.52
2023-11-09T23:54:51.792Z,10.55
2023-11-09T23:57:39.122Z,10.58
